Chickerell, United Kingdom
Current Conditions -  °F | °C
As of 9:50 AM on Saturday 25 Oct 2014 (Local Time) from EGDY Reporting Station
Scattered Clouds Scattered Clouds  
Wind Chill: 55°   Ceiling: Unl
Heat Index: 55°   Visibility: 6mi
Dew Point: 45°   Wind: 12mph
Humidity: 67%   Direction: 220°SW
Pressure: 30.06"   Gusts: NA
Location:  50.62°N, 2.5°W
Report Text: EGDY 250850Z AUTO 22010KT 9999 SCT046/// 13/07 Q1018
Loading
Personal Weather Stations






























Interactive Weather Map New forecast layout! Learn more

10-Day Weather Forecast

Advertisements
Track Severe Weather on mobile